METAR Data
IDs: Format: Raw Decoded Include TAF

Data at: 1020 UTC 26 Sep 2018

KIOW 260952Z AUTO 00000KT 10SM CLR 08/07 A3012 RMK AO2 SLP198 T00780067
KIOW 260852Z AUTO 25003KT 10SM CLR 08/07 A3011 RMK AO2 SLP196 T00830072 53007
KIOW 260752Z AUTO 26004KT 10SM CLR 08/07 A3010 RMK AO2 SLP192 T00830072
KIOW 260652Z AUTO 28006KT 10SM CLR 09/08 A3010 RMK AO2 SLP191 T00940078
KIOW 260552Z AUTO 28005KT 10SM CLR 09/08 A3009 RMK AO2 SLP188 T00940078 10161 20094 402500094 50004
KIOW 260452Z AUTO 30006KT 10SM CLR 11/08 A3009 RMK AO2 SLP188 T01110083
KIOW 260352Z AUTO 32006KT 10SM FEW025 13/08 A3008 RMK AO2 SLP182 T01280083
KIOW 260349Z AUTO 32006KT 10SM SCT025 13/08 A3007 RMK AO2
KIOW 260252Z AUTO 31011G22KT 10SM OVC029 14/09 A3006 RMK AO2 SLP179 T01390089 53023
KIOW 260152Z AUTO 32013G18KT 10SM BKN026 14/10 A3002 RMK AO2 PK WND 31026/0053 SLP166 T01440100
KIOW 260148Z AUTO 31011G17KT 10SM BKN026 BKN065 15/10 A3002 RMK AO2 PK WND 31026/0053
KIOW 260052Z AUTO 31017G24KT 10SM FEW023 OVC048 16/11 A2999 RMK AO2 SLP155 T01560111
KIOW 260019Z AUTO 32012G24KT 10SM FEW018 OVC043 16/12 A2998 RMK AO2 T01560122
KIOW 252352Z AUTO 31013KT 10SM OVC015 16/13 A2997 RMK AO2 PK WND 30026/2254 PRESRR SLP146 60088 T01560128 10206 20156 51026
KIOW 252252Z AUTO 30018G25KT 10SM OVC011 17/15 A2993 RMK AO2 PK WND 31026/2242 SLP133 T01720150
KIOW 252210Z AUTO 31012G22KT 10SM OVC013 18/16 A2990 RMK AO2 T01830161
KIOW 252152Z AUTO 31014G19KT 10SM BKN016 BKN023 OVC043 19/17 A2989 RMK AO2 SLP119 T01940167
KIOW 252140Z AUTO 29011KT 10SM SCT016 BKN021 OVC110 19/17 A2988 RMK AO2 T01940167
KIOW 252131Z AUTO 30015KT 10SM SCT018 BKN041 OVC110 20/17 A2987 RMK AO2 T02000172
KIOW 252119Z AUTO 30010KT 10SM FEW014 BKN018 OVC110 19/17 A2986 RMK AO2 T01940172
KIOW 252052Z AUTO 31010KT 10SM FEW012 BKN110 20/18 A2985 RMK AO2 SLP104 60088 T02000178 51010
KIOW 251952Z AUTO 33004KT 10SM SCT014 SCT075 BKN100 19/19 A2984 RMK AO2 PK WND 29034/1854 WSHFT 1842 LTG DSNT E AND SE RAE44 TSE13 SLP101 P0021 T01890189
KIOW 251929Z AUTO 30006KT 10SM -RA FEW012 SCT070 BKN095 19/19 A2983 RMK AO2 PK WND 29034/1854 WSHFT 1842 LTG DSNT NE-S TSE13 P0021 T01890189
KIOW 251919Z AUTO 31009G20KT 10SM VCTS -RA SCT026 BKN070 19/18 A2984 RMK AO2 PK WND 29034/1854 WSHFT 1842 LTG DSNT ALQDS TSE13 P0021 T01890183
KIOW 251908Z AUTO 30014G24KT 3SM -TSRA BR BKN024 BKN033 OVC070 19/18 A2984 RMK AO2 PK WND 29034/1854 WSHFT 1842 LTG DSNT ALQDS P0021 T01890183
KIOW 251906Z AUTO 30013G24KT 1 1/2SM TSRA BR BKN024 BKN033 OVC065 19/18 A2984 RMK AO2 PK WND 29034/1854 WSHFT 1842 LTG DSNT ALQDS P0021 T01890183
KIOW 251900Z AUTO 30018G34KT 1/2SM +TSRA FG FEW009 BKN016 OVC075 19/18 A2984 RMK AO2 PK WND 29034/1854 WSHFT 1842 LTG DSNT ALQDS P0020 T01940183
KIOW 251857Z AUTO 29020G34KT 1/4SM +TSRA FG BKN011 BKN026 OVC075 20/19 A2985 RMK AO2 PK WND 29034/1854 WSHFT 1842 LTG DSNT ALQDS P0016 T02000189
KIOW 251855Z AUTO 29024G38KT 1/4SM +TSRA FG BKN009 BKN026 OVC075 21/19 A2985 RMK AO2 PK WND 29034/1854 LTG DSNT ALQDS P0010 T02060194
KIOW 251852Z AUTO 29019G38KT 1/4SM +TSRA FG SCT009 BKN031 OVC075 21/20 A2984 RMK AO2 PK WND 29038/1847 WSHFT 1744 LTG DSNT ALQDS RAB34 TSB47 PRESRR SLP104 P0067 T02060200
KIOW 251847Z AUTO 29027G38KT 1/2SM +TSRA FG FEW011 BKN031 OVC080 22/20 A2984 RMK AO2 PK WND 29038/1847 WSHFT 1744 LTG DSNT ALQDS RAB34 TSB47 PRESRR P0032
KIOW 251845Z AUTO 29018G25KT 1 3/4SM VCTS +RA BR SCT031 BKN046 OVC080 22/20 A2983 RMK AO2 PK WND 16026/1819 WSHFT 1744 LTG DSNT SW-N RAB34 PRESRR P0013 T02220200
KIOW 251838Z AUTO 21007G21KT 9SM VCTS -RA FEW033 SCT046 OVC070 23/19 A2979 RMK AO2 PK WND 16026/1819 WSHFT 1744 LTG DSNT SW-N RAB34 P0000 T02330189
KIOW 251804Z AUTO 16014G23KT 10SM BKN033 BKN055 OVC085 25/19 A2980 RMK AO2 WSHFT 1744 LTG DSNT NW T02500194
KIOW 251752Z AUTO 18012KT 10SM FEW035 BKN070 OVC085 24/21 A2982 RMK AO2 RAB16E52 SLP093 P0003 60003 T02440206 10250 20167 58020
KIOW 251652Z AUTO 16009KT 10SM FEW018 OVC085 23/19 A2986 RMK AO2 SLP107 T02330194
KIOW 251640Z AUTO 15007KT 10SM SCT018 BKN085 23/19 A2986 RMK AO2 T02280194
KIOW 251552Z AUTO 15004KT 10SM BKN016 BKN021 22/19 A2987 RMK AO2 SLP113 T02220189
KIOW 251543Z AUTO 16007KT 10SM SCT016 BKN021 BKN031 22/19 A2988 RMK AO2 T02220189
KIOW 251507Z AUTO 15008KT 10SM SCT007 BKN045 21/19 A2988 RMK AO2 T02110189
KIOW 251452Z AUTO 15005KT 10SM BKN005 21/19 A2988 RMK AO2 CIG 003V007 SLP114 T02060189 58006
KIOW 251352Z AUTO 18004KT 7SM OVC002 18/18 A2988 RMK AO2 SLP117 T01830183
KIOW 251344Z AUTO 00000KT 3SM BR OVC002 18/18 A2988 RMK AO2 T01780178
KIOW 251332Z AUTO 19003KT 1 1/4SM BR OVC002 18/18 A2989 RMK AO2 T01780178
KIOW 251252Z AUTO 15003KT 1/2SM FG VV002 17/17 A2989 RMK AO2 SLP120 T01720172
KIOW 251152Z AUTO 00000KT 1/4SM FG VV002 17/17 A2990 RMK AO2 SLP121 T01670167 10183 20144 50003
KIOW 251052Z AUTO 22003KT 1/4SM FG VV002 16/16 A2990 RMK AO2 SLP121 T01560156
KIOW 250952Z AUTO 00000KT 1/4SM FG VV003 15/15 A2989 RMK AO2 SLP120 T01500150
KIOW 250923Z AUTO 00000KT 3/4SM BR VV004 16/16 A2989 RMK AO2 T01560156
KIOW 250916Z AUTO 00000KT 1 1/4SM BR BKN004 16/15 A2989 RMK AO2 T01560150
KIOW 250859Z AUTO 15003KT 1/2SM FG VV004 16/16 A2989 RMK AO2 T01560156
KIOW 250852Z AUTO 00000KT 1SM BR VV004 16/15 A2989 RMK AO2 VIS 1/2V5 SLP117 T01560150 55004
KIOW 250847Z AUTO 00000KT 1 3/4SM BR FEW004 16/16 A2989 RMK AO2
KIOW 250752Z AUTO 00000KT 7SM CLR 17/17 A2988 RMK AO2 SLP116 T01720172
KIOW 250652Z AUTO 00000KT 10SM CLR 17/16 A2989 RMK AO2 SLP118 T01670156
KIOW 250552Z AUTO 00000KT 10SM SCT037 18/16 A2990 RMK AO2 SLP121 T01780161 10217 20172 402670111 50004
KIOW 250452Z AUTO 00000KT 10SM FEW025 18/17 A2990 RMK AO2 SLP122 T01830167
KIOW 250352Z AUTO 14003KT 10SM CLR 18/16 A2989 RMK AO2 SLP117 T01780161
KIOW 250252Z AUTO 15003KT 10SM CLR 18/17 A2988 RMK AO2 SLP117 T01830167 51006
KIOW 250152Z AUTO 00000KT 10SM SCT038 BKN048 20/17 A2988 RMK AO2 SLP116 T02000172
KIOW 250052Z AUTO 00000KT 10SM SCT050 21/17 A2987 RMK AO2 SLP113 T02060172
KIOW 242352Z AUTO 16004KT 10SM FEW048 22/17 A2987 RMK AO2 SLP112 T02170172 10267 20217 58001
KIOW 242252Z AUTO 16006KT 10SM OVC045 24/17 A2988 RMK AO2 SLP115 T02390172